createdAt,value
2019-02-11T00:00:13.075Z,996.56
2019-02-11T00:01:13.050Z,996.56
2019-02-11T00:02:13.042Z,996.68
2019-02-11T00:03:13.048Z,996.68
2019-02-11T00:04:13.017Z,996.68
2019-02-11T00:05:13.009Z,996.70
2019-02-11T00:06:13.011Z,996.74
2019-02-11T00:07:12.985Z,996.69
2019-02-11T00:08:12.973Z,996.76
2019-02-11T00:09:12.986Z,996.77
2019-02-11T00:10:12.953Z,996.80
2019-02-11T00:11:12.941Z,996.89
2019-02-11T00:12:12.939Z,996.89
2019-02-11T00:13:12.918Z,996.90
2019-02-11T00:14:12.909Z,996.94
2019-02-11T00:15:12.942Z,996.98
2019-02-11T00:16:12.886Z,996.98
2019-02-11T00:17:12.891Z,997.02
2019-02-11T00:18:12.863Z,997.10
2019-02-11T00:19:12.853Z,997.09
2019-02-11T00:20:12.843Z,997.08
2019-02-11T00:21:12.882Z,997.14
2019-02-11T00:22:12.818Z,997.15
2019-02-11T00:23:12.827Z,997.21
2019-02-11T00:24:13.917Z,997.21
2019-02-11T00:25:12.800Z,997.26
2019-02-11T00:26:12.796Z,997.25
2019-02-11T00:27:12.798Z,997.27
2019-02-11T00:28:12.753Z,997.30
2019-02-11T00:29:12.739Z,997.33
2019-02-11T00:30:12.728Z,997.35
2019-02-11T00:31:12.743Z,997.40
2019-02-11T00:32:12.725Z,997.42
2019-02-11T00:33:12.726Z,997.38
2019-02-11T00:34:12.692Z,997.44
2019-02-11T00:35:12.677Z,997.47
2019-02-11T00:36:12.666Z,997.49
2019-02-11T00:37:12.665Z,997.52
2019-02-11T00:38:12.641Z,997.55
2019-02-11T00:39:12.682Z,997.53
2019-02-11T00:40:12.620Z,997.54
2019-02-11T00:41:12.612Z,997.57
2019-02-11T00:42:12.597Z,997.62
2019-02-11T00:43:18.993Z,997.63
2019-02-11T00:44:13.589Z,997.62
2019-02-11T00:45:12.586Z,997.65
2019-02-11T00:46:12.588Z,997.68
2019-02-11T00:47:12.551Z,997.73
2019-02-11T00:48:12.539Z,997.72
2019-02-11T00:49:12.524Z,997.71
2019-02-11T00:50:12.533Z,997.74
2019-02-11T00:51:12.554Z,997.79
2019-02-11T00:52:12.486Z,997.76
2019-02-11T00:53:12.482Z,997.84
2019-02-11T00:54:12.470Z,997.83
2019-02-11T00:55:12.459Z,997.91
2019-02-11T00:56:12.484Z,997.91
2019-02-11T00:57:12.472Z,997.96
2019-02-11T00:58:12.424Z,997.99
2019-02-11T00:59:12.416Z,998.04
2019-02-11T01:00:12.400Z,998.02
2019-02-11T01:01:12.388Z,998.04
2019-02-11T01:02:12.391Z,998.05
2019-02-11T01:03:12.413Z,998.02
2019-02-11T01:04:12.357Z,998.08
2019-02-11T01:05:12.345Z,998.10
2019-02-11T01:06:12.332Z,998.18
2019-02-11T01:07:12.335Z,998.16
2019-02-11T01:08:12.326Z,998.20
2019-02-11T01:09:12.330Z,998.20
2019-02-11T01:10:12.299Z,998.23
2019-02-11T01:11:12.365Z,998.26
2019-02-11T01:12:12.266Z,998.36
2019-02-11T01:13:12.278Z,998.34
2019-02-11T01:14:12.249Z,998.33
2019-02-11T01:15:12.234Z,998.39
2019-02-11T01:16:12.252Z,998.45
2019-02-11T01:17:12.213Z,998.46
2019-02-11T01:18:12.209Z,998.53
2019-02-11T01:19:12.206Z,998.48
2019-02-11T01:20:12.184Z,998.58
2019-02-11T01:21:12.169Z,998.63
2019-02-11T01:22:12.185Z,998.64
2019-02-11T01:23:12.145Z,998.67
2019-02-11T01:24:12.152Z,998.74
2019-02-11T01:25:12.128Z,998.75
2019-02-11T01:26:12.115Z,998.71
2019-02-11T01:27:12.105Z,998.80
2019-02-11T01:28:12.124Z,998.79
2019-02-11T01:29:12.079Z,998.85
2019-02-11T01:30:12.084Z,998.87
2019-02-11T01:31:12.065Z,998.89
2019-02-11T01:32:12.048Z,998.89
2019-02-11T01:33:12.034Z,998.92
2019-02-11T01:34:12.066Z,998.95
2019-02-11T01:35:12.023Z,998.95
2019-02-11T01:36:12.004Z,998.97
2019-02-11T01:37:12.012Z,999.00
2019-02-11T01:38:11.979Z,999.03
2019-02-11T01:39:11.977Z,999.09
2019-02-11T01:40:11.991Z,999.09
2019-02-11T01:41:11.965Z,999.12
2019-02-11T01:42:11.937Z,999.11
2019-02-11T01:43:11.925Z,999.13
2019-02-11T01:44:11.920Z,999.20
2019-02-11T01:45:11.906Z,999.18
2019-02-11T01:46:11.923Z,999.25
2019-02-11T01:47:11.897Z,999.19
2019-02-11T01:48:11.873Z,999.25
2019-02-11T01:49:11.873Z,999.26
2019-02-11T01:50:11.848Z,999.28
2019-02-11T01:51:11.838Z,999.29
2019-02-11T01:52:11.855Z,999.31
2019-02-11T01:53:11.827Z,999.30
2019-02-11T01:54:11.806Z,999.32
2019-02-11T01:55:11.795Z,999.38
2019-02-11T01:56:11.791Z,999.41
2019-02-11T01:57:11.784Z,999.50
2019-02-11T01:58:11.800Z,999.50
2019-02-11T01:59:11.763Z,999.47
2019-02-11T02:00:11.738Z,999.54
2019-02-11T02:01:11.731Z,999.54
2019-02-11T02:02:11.716Z,999.55
2019-02-11T02:03:11.716Z,999.60
2019-02-11T02:04:11.748Z,999.63
2019-02-11T02:05:11.684Z,999.59
2019-02-11T02:06:11.676Z,999.63
2019-02-11T02:07:11.664Z,999.62
2019-02-11T02:08:11.651Z,999.64
2019-02-11T02:09:11.654Z,999.66
2019-02-11T02:10:11.667Z,999.67
2019-02-11T02:11:11.619Z,999.69
2019-02-11T02:12:11.607Z,999.67
2019-02-11T02:13:11.603Z,999.69
2019-02-11T02:14:11.581Z,999.73
2019-02-11T02:15:11.583Z,999.72
2019-02-11T02:16:11.558Z,999.77
2019-02-11T02:17:11.592Z,999.72
2019-02-11T02:18:11.555Z,999.77
2019-02-11T02:19:11.532Z,999.81
2019-02-11T02:20:11.538Z,999.79
2019-02-11T02:21:11.522Z,999.87
2019-02-11T02:22:11.497Z,999.80
2019-02-11T02:23:11.512Z,999.83
2019-02-11T02:24:11.475Z,999.79
2019-02-11T02:25:11.464Z,999.83
2019-02-11T02:26:11.465Z,999.79
2019-02-11T02:27:11.439Z,999.86
2019-02-11T02:28:11.461Z,999.90
2019-02-11T02:29:11.419Z,999.88
2019-02-11T02:30:11.407Z,999.89
2019-02-11T02:31:11.411Z,999.97
2019-02-11T02:32:11.383Z,999.91
2019-02-11T02:33:11.374Z,999.93
2019-02-11T02:34:11.403Z,999.97
2019-02-11T02:35:11.351Z,1000.02
2019-02-11T02:36:11.358Z,999.97
2019-02-11T02:37:11.330Z,999.99
2019-02-11T02:38:11.330Z,999.99
2019-02-11T02:39:11.308Z,1000.02
2019-02-11T02:40:11.332Z,1000.04
2019-02-11T02:41:11.286Z,1000.04
2019-02-11T02:42:11.284Z,1000.01
2019-02-11T02:43:11.262Z,1000.05
2019-02-11T02:44:11.262Z,1000.07
2019-02-11T02:45:11.244Z,1000.10
2019-02-11T02:46:11.244Z,1000.10
2019-02-11T02:47:11.223Z,1000.12
2019-02-11T02:48:11.227Z,1000.15
2019-02-11T02:49:11.198Z,1000.18
2019-02-11T02:50:11.182Z,1000.18
2019-02-11T02:51:11.174Z,1000.28
2019-02-11T02:52:11.204Z,1000.30
2019-02-11T02:53:11.168Z,1000.31
2019-02-11T02:54:11.140Z,1000.33
2019-02-11T02:55:11.184Z,1000.35
2019-02-11T02:56:11.118Z,1000.33
2019-02-11T02:57:11.107Z,1000.37
2019-02-11T02:58:11.143Z,1000.37
2019-02-11T02:59:11.102Z,1000.40
2019-02-11T03:00:11.092Z,1000.44
2019-02-11T03:01:11.064Z,1000.50
2019-02-11T03:02:11.051Z,1000.52
2019-02-11T03:03:11.044Z,1000.56
2019-02-11T03:04:11.059Z,1000.54
2019-02-11T03:05:11.029Z,1000.53
2019-02-11T03:06:11.027Z,1000.61
2019-02-11T03:07:11.008Z,1000.64
2019-02-11T03:08:10.989Z,1000.65
2019-02-11T03:09:10.980Z,1000.68
2019-02-11T03:10:11.025Z,1000.67
2019-02-11T03:11:10.968Z,1000.65
2019-02-11T03:12:10.941Z,1000.69
2019-02-11T03:13:10.940Z,1000.71
2019-02-11T03:14:10.925Z,1000.71
2019-02-11T03:15:10.913Z,1000.77
2019-02-11T03:16:10.993Z,1000.73
2019-02-11T03:17:10.887Z,1000.79
2019-02-11T03:18:10.881Z,1000.78
2019-02-11T03:19:10.866Z,1000.83
2019-02-11T03:20:10.865Z,1000.82
2019-02-11T03:21:10.843Z,1000.87
2019-02-11T03:22:10.889Z,1000.89
2019-02-11T03:23:10.830Z,1000.92
2019-02-11T03:24:10.812Z,1000.94
2019-02-11T03:25:10.802Z,1000.97
2019-02-11T03:26:10.790Z,1000.94
2019-02-11T03:27:10.774Z,1000.92
2019-02-11T03:28:10.807Z,1000.96
2019-02-11T03:29:10.766Z,1001.03
2019-02-11T03:30:10.747Z,1001.05
2019-02-11T03:31:10.736Z,1001.09
2019-02-11T03:32:10.719Z,1001.07
2019-02-11T03:33:10.719Z,1001.09
2019-02-11T03:34:10.744Z,1001.11
2019-02-11T03:35:10.695Z,1001.17
2019-02-11T03:36:10.674Z,1001.17
2019-02-11T03:37:10.666Z,1001.16
2019-02-11T03:38:10.680Z,1001.20
2019-02-11T03:39:10.641Z,1001.23
2019-02-11T03:40:10.681Z,1001.23
2019-02-11T03:41:10.622Z,1001.21
2019-02-11T03:42:10.615Z,1001.22
2019-02-11T03:43:10.599Z,1001.20
2019-02-11T03:44:15.057Z,1001.20
2019-02-11T03:45:10.575Z,1001.23
2019-02-11T03:46:10.598Z,1001.23
2019-02-11T03:47:10.561Z,1001.32
2019-02-11T03:48:10.549Z,1001.33
2019-02-11T03:49:10.536Z,1001.37
2019-02-11T03:50:10.543Z,1001.38
2019-02-11T03:51:10.510Z,1001.42
2019-02-11T03:52:10.534Z,1001.52
2019-02-11T03:53:10.486Z,1001.51
2019-02-11T03:54:10.479Z,1001.54
2019-02-11T03:55:10.468Z,1001.51
2019-02-11T03:56:10.519Z,1001.51
2019-02-11T03:57:10.445Z,1001.54
2019-02-11T03:58:10.470Z,1001.57
2019-02-11T03:59:10.429Z,1001.55
2019-02-11T04:00:10.418Z,1001.61
2019-02-11T04:01:10.408Z,1001.61
2019-02-11T04:02:10.409Z,1001.64
2019-02-11T04:03:10.377Z,1001.67
2019-02-11T04:04:10.411Z,1001.72
2019-02-11T04:05:10.372Z,1001.74
2019-02-11T04:06:10.348Z,1001.75
2019-02-11T04:07:10.336Z,1001.76
2019-02-11T04:08:10.353Z,1001.78
2019-02-11T04:09:10.315Z,1001.79
2019-02-11T04:10:10.340Z,1001.79
2019-02-11T04:11:10.295Z,1001.78
2019-02-11T04:12:10.279Z,1001.79
2019-02-11T04:13:10.267Z,1001.84
2019-02-11T04:14:10.283Z,1001.85
2019-02-11T04:15:10.246Z,1001.86
2019-02-11T04:16:10.297Z,1001.87
2019-02-11T04:17:10.225Z,1001.94
2019-02-11T04:18:10.213Z,1001.92
2019-02-11T04:19:10.209Z,1001.94
2019-02-11T04:20:10.200Z,1001.95
2019-02-11T04:21:10.183Z,1001.99
2019-02-11T04:22:10.239Z,1001.98
2019-02-11T04:23:10.158Z,1002.01
2019-02-11T04:24:10.149Z,1002.07
2019-02-11T04:25:10.140Z,1002.11
2019-02-11T04:26:10.131Z,1002.12
2019-02-11T04:27:10.115Z,1002.10
2019-02-11T04:28:10.157Z,1002.14
2019-02-11T04:29:10.092Z,1002.23
2019-02-11T04:30:10.085Z,1002.26
2019-02-11T04:31:10.071Z,1002.29
2019-02-11T04:32:10.089Z,1002.30
2019-02-11T04:33:10.054Z,1002.30
2019-02-11T04:34:10.075Z,1002.35
2019-02-11T04:35:10.023Z,1002.42
2019-02-11T04:36:10.016Z,1002.45
2019-02-11T04:37:10.008Z,1002.51
2019-02-11T04:38:10.012Z,1002.46
2019-02-11T04:39:09.981Z,1002.49
2019-02-11T04:40:10.015Z,1002.45
2019-02-11T04:41:09.958Z,1002.48
2019-02-11T04:42:10.020Z,1002.50
2019-02-11T04:43:09.938Z,1002.53
2019-02-11T04:44:09.940Z,1002.53
2019-02-11T04:45:09.935Z,1002.58
2019-02-11T04:46:09.947Z,1002.62
2019-02-11T04:47:09.892Z,1002.64
2019-02-11T04:48:09.886Z,1002.63
2019-02-11T04:49:09.877Z,1002.72
2019-02-11T04:50:09.877Z,1002.65
2019-02-11T04:51:09.867Z,1002.66
2019-02-11T04:52:09.884Z,1002.70
2019-02-11T04:53:09.830Z,1002.68
2019-02-11T04:54:09.828Z,1002.70
2019-02-11T04:55:09.815Z,1002.75
2019-02-11T04:56:09.810Z,1002.76
2019-02-11T04:57:09.786Z,1002.78
2019-02-11T04:58:09.824Z,1002.76
2019-02-11T04:59:09.764Z,1002.80
2019-02-11T05:00:09.760Z,1002.86
2019-02-11T05:01:09.740Z,1002.85
2019-02-11T05:02:09.743Z,1002.87
2019-02-11T05:03:09.720Z,1002.89
2019-02-11T05:04:09.738Z,1002.86
2019-02-11T05:05:09.699Z,1002.82
2019-02-11T05:06:09.691Z,1002.90
2019-02-11T05:07:09.700Z,1002.90
2019-02-11T05:08:09.668Z,1002.98
2019-02-11T05:09:09.656Z,1002.97
2019-02-11T05:10:09.687Z,1003.04
2019-02-11T05:11:09.632Z,1003.02
2019-02-11T05:12:09.629Z,1003.01
2019-02-11T05:13:09.612Z,1003.05
2019-02-11T05:14:09.617Z,1003.08
2019-02-11T05:15:09.593Z,1003.02
2019-02-11T05:16:09.630Z,1003.02
2019-02-11T05:17:09.566Z,1003.09
2019-02-11T05:18:09.561Z,1003.09
2019-02-11T05:19:09.542Z,1003.01
2019-02-11T05:20:09.543Z,1003.11
2019-02-11T05:21:09.590Z,1003.05
2019-02-11T05:22:09.510Z,1003.02
2019-02-11T05:23:09.507Z,1003.02
2019-02-11T05:24:09.552Z,1003.05
2019-02-11T05:25:09.481Z,1003.09
2019-02-11T05:26:09.471Z,1003.11
2019-02-11T05:27:09.517Z,1003.12
2019-02-11T05:28:09.450Z,1003.12
2019-02-11T05:29:09.443Z,1003.15
2019-02-11T05:30:09.431Z,1003.12
2019-02-11T05:31:09.420Z,1003.11
2019-02-11T05:32:09.484Z,1003.19
2019-02-11T05:33:09.423Z,1003.18
2019-02-11T05:34:09.381Z,1003.24
2019-02-11T05:35:09.425Z,1003.24
2019-02-11T05:36:09.369Z,1003.25
2019-02-11T05:37:09.347Z,1003.25
2019-02-11T05:38:09.409Z,1003.23
2019-02-11T05:39:09.330Z,1003.26
2019-02-11T05:40:09.335Z,1003.31
2019-02-11T05:41:09.314Z,1003.32
2019-02-11T05:42:09.291Z,1003.33
2019-02-11T05:43:09.281Z,1003.42
2019-02-11T05:44:09.289Z,1003.50
2019-02-11T05:45:09.268Z,1003.44
2019-02-11T05:46:09.292Z,1003.41
2019-02-11T05:47:09.241Z,1003.45
2019-02-11T05:48:09.229Z,1003.44
2019-02-11T05:49:09.256Z,1003.51
2019-02-11T05:50:09.220Z,1003.55
2019-02-11T05:51:09.207Z,1003.61
2019-02-11T05:52:09.208Z,1003.61
2019-02-11T05:53:09.172Z,1003.63
2019-02-11T05:54:09.160Z,1003.63
2019-02-11T05:55:09.166Z,1003.67
2019-02-11T05:56:09.160Z,1003.70
2019-02-11T05:57:09.137Z,1003.71
2019-02-11T05:58:09.163Z,1003.79
2019-02-11T05:59:09.118Z,1003.77
2019-02-11T06:00:09.103Z,1003.77
2019-02-11T06:01:09.085Z,1003.86
2019-02-11T06:02:09.102Z,1003.85
2019-02-11T06:03:09.618Z,1003.82
2019-02-11T06:04:09.115Z,1003.87
2019-02-11T06:05:09.045Z,1003.88
2019-02-11T06:06:09.031Z,1003.94
2019-02-11T06:07:09.020Z,1003.96
2019-02-11T06:08:09.035Z,1003.94
2019-02-11T06:09:09.001Z,1004.00
2019-02-11T06:10:09.019Z,1004.01
2019-02-11T06:11:08.977Z,1004.04
2019-02-11T06:12:08.966Z,1004.03
2019-02-11T06:13:08.958Z,1004.08
2019-02-11T06:14:08.968Z,1004.11
2019-02-11T06:15:08.934Z,1004.05
2019-02-11T06:16:08.960Z,1004.13
2019-02-11T06:17:08.918Z,1004.14
2019-02-11T06:18:08.903Z,1004.31
2019-02-11T06:19:08.892Z,1004.33
2019-02-11T06:20:08.893Z,1004.35
2019-02-11T06:21:08.870Z,1004.38
2019-02-11T06:22:08.904Z,1004.39
2019-02-11T06:23:08.843Z,1004.34
2019-02-11T06:24:08.844Z,1004.35
2019-02-11T06:25:08.896Z,1004.38
2019-02-11T06:26:08.826Z,1004.47
2019-02-11T06:27:08.804Z,1004.44
2019-02-11T06:28:08.815Z,1004.43
2019-02-11T06:29:08.785Z,1004.50
2019-02-11T06:30:08.770Z,1004.54
2019-02-11T06:31:08.776Z,1004.53
2019-02-11T06:32:08.765Z,1004.64
2019-02-11T06:33:08.742Z,1004.64
2019-02-11T06:34:08.727Z,1004.68
2019-02-11T06:35:08.767Z,1004.64
2019-02-11T06:36:12.328Z,1004.67
2019-02-11T06:37:08.707Z,1004.70
2019-02-11T06:38:08.683Z,1004.70
2019-02-11T06:39:08.670Z,1004.71
2019-02-11T06:40:08.665Z,1004.76
2019-02-11T06:41:08.687Z,1004.76
2019-02-11T06:42:08.658Z,1004.78
2019-02-11T06:43:08.641Z,1004.83
2019-02-11T06:44:08.619Z,1004.81
2019-02-11T06:45:13.084Z,1004.81
2019-02-11T06:46:08.596Z,1004.88
2019-02-11T06:47:08.619Z,1004.85
2019-02-11T06:48:08.575Z,1004.90
2019-02-11T06:49:08.579Z,1004.91
2019-02-11T06:50:08.555Z,1004.93
2019-02-11T06:51:08.542Z,1005.03
2019-02-11T06:52:08.527Z,1005.08
2019-02-11T06:53:08.566Z,1005.14
2019-02-11T06:54:08.510Z,1005.11
2019-02-11T06:55:08.511Z,1005.10
2019-02-11T06:56:08.487Z,1005.05
2019-02-11T06:57:08.476Z,1005.17
2019-02-11T06:58:08.468Z,1005.13
2019-02-11T06:59:08.456Z,1005.14
2019-02-11T07:00:08.500Z,1005.09
2019-02-11T07:01:08.435Z,1005.22
2019-02-11T07:02:08.427Z,1005.21
2019-02-11T07:03:08.411Z,1005.25
2019-02-11T07:04:08.400Z,1005.28
2019-02-11T07:05:08.392Z,1005.33
2019-02-11T07:06:08.435Z,1005.33
2019-02-11T07:07:08.367Z,1005.34
2019-02-11T07:08:08.358Z,1005.33
2019-02-11T07:09:08.341Z,1005.37
2019-02-11T07:10:08.362Z,1005.45
2019-02-11T07:11:08.321Z,1005.43
2019-02-11T07:12:08.354Z,1005.47
2019-02-11T07:13:08.314Z,1005.47
2019-02-11T07:14:08.292Z,1005.45
2019-02-11T07:15:08.279Z,1005.53
2019-02-11T07:16:08.270Z,1005.61
2019-02-11T07:17:08.259Z,1005.61
2019-02-11T07:18:08.304Z,1005.59
2019-02-11T07:19:08.255Z,1005.58
2019-02-11T07:20:08.225Z,1005.60
2019-02-11T07:21:08.216Z,1005.63
2019-02-11T07:22:08.202Z,1005.69
2019-02-11T07:23:08.192Z,1005.73
2019-02-11T07:24:08.197Z,1005.69
2019-02-11T07:25:08.179Z,1005.66
2019-02-11T07:26:08.163Z,1005.72
2019-02-11T07:27:08.150Z,1005.66
2019-02-11T07:28:08.157Z,1005.73
2019-02-11T07:29:08.126Z,1005.73
2019-02-11T07:30:08.171Z,1005.77
2019-02-11T07:31:08.104Z,1005.84
2019-02-11T07:32:08.093Z,1005.82
2019-02-11T07:33:08.083Z,1005.89
2019-02-11T07:34:08.079Z,1005.95
2019-02-11T07:35:08.088Z,1005.89
2019-02-11T07:36:08.073Z,1005.91
2019-02-11T07:37:08.038Z,1005.97
2019-02-11T07:38:08.028Z,1006.03
2019-02-11T07:39:08.013Z,1005.97
2019-02-11T07:40:08.007Z,1006.03
2019-02-11T07:41:08.005Z,1006.07
2019-02-11T07:42:08.008Z,1006.08
2019-02-11T07:43:07.990Z,1006.09
2019-02-11T07:44:07.963Z,1006.11
2019-02-11T07:45:07.951Z,1006.16
2019-02-11T07:46:07.948Z,1006.15
2019-02-11T07:47:07.927Z,1006.19
2019-02-11T07:48:07.960Z,1006.25
2019-02-11T07:49:07.919Z,1006.23
2019-02-11T07:50:07.905Z,1006.24
2019-02-11T07:51:07.882Z,1006.28
2019-02-11T07:52:07.880Z,1006.31
2019-02-11T07:53:07.864Z,1006.38
2019-02-11T07:54:07.894Z,1006.42
2019-02-11T07:55:07.853Z,1006.47
2019-02-11T07:56:07.843Z,1006.48
2019-02-11T07:57:07.820Z,1006.55
2019-02-11T07:58:07.810Z,1006.57
2019-02-11T07:59:07.799Z,1006.61
2019-02-11T08:00:07.861Z,1006.64
2019-02-11T08:01:07.775Z,1006.68
2019-02-11T08:02:07.769Z,1006.64
2019-02-11T08:03:07.758Z,1006.68
2019-02-11T08:04:07.742Z,1006.72
2019-02-11T08:05:07.729Z,1006.74
2019-02-11T08:06:09.051Z,1006.71
2019-02-11T08:07:07.707Z,1006.74
2019-02-11T08:08:07.697Z,1006.81
2019-02-11T08:09:07.687Z,1006.81
2019-02-11T08:10:07.675Z,1006.87
2019-02-11T08:11:07.680Z,1006.81
2019-02-11T08:12:07.715Z,1006.87
2019-02-11T08:13:07.659Z,1006.85
2019-02-11T08:14:07.642Z,1006.89
2019-02-11T08:15:07.624Z,1006.97
2019-02-11T08:16:07.613Z,1006.99
2019-02-11T08:17:07.600Z,1007.07
2019-02-11T08:18:07.651Z,1007.07
2019-02-11T08:19:07.580Z,1007.12
2019-02-11T08:20:07.567Z,1007.16
2019-02-11T08:21:07.558Z,1007.13
2019-02-11T08:22:07.545Z,1007.11
2019-02-11T08:23:12.964Z,1007.13
2019-02-11T08:24:08.570Z,1007.15
2019-02-11T08:25:07.516Z,1007.11
2019-02-11T08:26:07.505Z,1007.12
2019-02-11T08:27:07.488Z,1007.16
2019-02-11T08:28:07.482Z,1007.22
2019-02-11T08:29:07.483Z,1007.24
2019-02-11T08:30:07.511Z,1007.22
2019-02-11T08:31:07.447Z,1007.24
2019-02-11T08:32:07.436Z,1007.26
2019-02-11T08:33:07.425Z,1007.32
2019-02-11T08:34:07.414Z,1007.33
2019-02-11T08:35:07.462Z,1007.35
2019-02-11T08:36:07.423Z,1007.29
2019-02-11T08:37:07.379Z,1007.39
2019-02-11T08:38:07.370Z,1007.39
2019-02-11T08:39:07.360Z,1007.42
2019-02-11T08:40:07.346Z,1007.42
2019-02-11T08:41:07.345Z,1007.48
2019-02-11T08:42:07.372Z,1007.50
2019-02-11T08:43:07.315Z,1007.57
2019-02-11T08:44:07.314Z,1007.56
2019-02-11T08:45:07.311Z,1007.61
2019-02-11T08:46:07.305Z,1007.56
2019-02-11T08:47:07.285Z,1007.62
2019-02-11T08:48:07.293Z,1007.63
2019-02-11T08:49:07.250Z,1007.65
2019-02-11T08:50:07.237Z,1007.68
2019-02-11T08:51:07.230Z,1007.69
2019-02-11T08:52:07.225Z,1007.70
2019-02-11T08:53:07.215Z,1007.81
2019-02-11T08:54:07.232Z,1007.74
2019-02-11T08:55:07.192Z,1007.78
2019-02-11T08:56:07.170Z,1007.76
2019-02-11T08:57:07.176Z,1007.77
2019-02-11T08:58:07.151Z,1007.76
2019-02-11T08:59:07.135Z,1007.76
2019-02-11T09:00:07.148Z,1007.76
2019-02-11T09:01:07.115Z,1007.76
2019-02-11T09:02:07.104Z,1007.79
2019-02-11T09:03:07.112Z,1007.78
2019-02-11T09:04:07.085Z,1007.81
2019-02-11T09:05:07.073Z,1007.85
2019-02-11T09:06:07.102Z,1007.84
2019-02-11T09:07:07.053Z,1007.85
2019-02-11T09:08:07.045Z,1007.87
2019-02-11T09:09:07.045Z,1007.91
2019-02-11T09:10:07.026Z,1007.91
2019-02-11T09:11:07.009Z,1008.00
2019-02-11T09:12:07.041Z,1008.00
2019-02-11T09:13:06.986Z,1008.05
2019-02-11T09:14:06.973Z,1008.09
2019-02-11T09:15:06.982Z,1008.10
2019-02-11T09:16:06.970Z,1008.17
2019-02-11T09:17:10.310Z,1008.19
2019-02-11T09:18:06.981Z,1008.21
2019-02-11T09:19:06.918Z,1008.22
2019-02-11T09:20:06.908Z,1008.22
2019-02-11T09:21:06.909Z,1008.26
2019-02-11T09:22:07.816Z,1008.25
2019-02-11T09:23:06.877Z,1008.25
2019-02-11T09:24:06.877Z,1008.27
2019-02-11T09:25:06.854Z,1008.35
2019-02-11T09:26:06.847Z,1008.32
2019-02-11T09:27:06.849Z,1008.33
2019-02-11T09:28:06.830Z,1008.36
2019-02-11T09:29:06.811Z,1008.35
2019-02-11T09:30:06.888Z,1008.38
2019-02-11T09:31:06.785Z,1008.40
2019-02-11T09:32:06.794Z,1008.43
2019-02-11T09:33:06.763Z,1008.39
2019-02-11T09:34:06.767Z,1008.49
2019-02-11T09:35:06.744Z,1008.50
2019-02-11T09:36:06.764Z,1008.49
2019-02-11T09:37:06.727Z,1008.56
2019-02-11T09:38:06.730Z,1008.59
2019-02-11T09:39:06.701Z,1008.58
2019-02-11T09:40:06.685Z,1008.57
2019-02-11T09:41:06.684Z,1008.61
2019-02-11T09:42:06.711Z,1008.62
2019-02-11T09:43:06.659Z,1008.63
2019-02-11T09:44:06.657Z,1008.70
2019-02-11T09:45:06.651Z,1008.69
2019-02-11T09:46:06.624Z,1008.75
2019-02-11T09:47:06.627Z,1008.78
2019-02-11T09:48:06.636Z,1008.80
2019-02-11T09:49:06.593Z,1008.86
2019-02-11T09:50:06.596Z,1008.90
2019-02-11T09:51:06.565Z,1009.01
2019-02-11T09:52:06.555Z,1009.04
2019-02-11T09:53:06.544Z,1009.00
2019-02-11T09:54:06.552Z,1008.96
2019-02-11T09:55:06.521Z,1008.99
2019-02-11T09:56:06.536Z,1009.00
2019-02-11T09:57:06.499Z,1009.07
2019-02-11T09:58:06.491Z,1009.06
2019-02-11T09:59:06.479Z,1009.03
2019-02-11T10:00:06.498Z,1009.03
2019-02-11T10:01:06.452Z,1009.07
2019-02-11T10:02:06.460Z,1009.10
2019-02-11T10:03:06.435Z,1009.11
2019-02-11T10:04:06.421Z,1009.09
2019-02-11T10:05:06.413Z,1009.13
2019-02-11T10:06:06.456Z,1009.13
2019-02-11T10:07:06.402Z,1009.11
2019-02-11T10:08:06.380Z,1009.12
2019-02-11T10:09:06.365Z,1009.17
2019-02-11T10:10:06.356Z,1009.21
2019-02-11T10:11:06.343Z,1009.25
2019-02-11T10:12:06.400Z,1009.25
2019-02-11T10:13:06.340Z,1009.30
2019-02-11T10:14:06.321Z,1009.32
2019-02-11T10:15:06.300Z,1009.37
2019-02-11T10:16:12.265Z,1009.46
2019-02-11T10:17:07.277Z,1009.54
2019-02-11T10:18:06.310Z,1009.59
2019-02-11T10:19:06.259Z,1009.59
2019-02-11T10:20:06.242Z,1009.61
2019-02-11T10:21:06.233Z,1009.64
2019-02-11T10:22:06.222Z,1009.63
2019-02-11T10:23:06.220Z,1009.66
2019-02-11T10:24:06.253Z,1009.67
2019-02-11T10:25:06.194Z,1009.71
2019-02-11T10:26:06.178Z,1009.73
2019-02-11T10:27:06.169Z,1009.77
2019-02-11T10:28:06.159Z,1009.78
2019-02-11T10:29:06.182Z,1009.84
2019-02-11T10:30:06.176Z,1009.76
2019-02-11T10:31:06.144Z,1009.82
2019-02-11T10:32:06.114Z,1009.81
2019-02-11T10:33:06.107Z,1009.85
2019-02-11T10:34:06.098Z,1009.94
2019-02-11T10:35:06.091Z,1009.89
2019-02-11T10:36:06.090Z,1009.82
2019-02-11T10:37:06.077Z,1009.87
2019-02-11T10:38:06.048Z,1009.82
2019-02-11T10:39:06.038Z,1009.78
2019-02-11T10:40:06.025Z,1009.81
2019-02-11T10:41:06.031Z,1009.79
2019-02-11T10:42:06.040Z,1009.86
2019-02-11T10:43:05.992Z,1009.87
2019-02-11T10:44:05.986Z,1009.87
2019-02-11T10:45:05.971Z,1009.94
2019-02-11T10:46:05.960Z,1009.94
2019-02-11T10:47:05.968Z,1009.97
2019-02-11T10:48:05.974Z,1010.00
2019-02-11T10:49:05.943Z,1010.03
2019-02-11T10:50:05.915Z,1010.07
2019-02-11T10:51:05.912Z,1010.02
2019-02-11T10:52:05.904Z,1010.08
2019-02-11T10:53:05.884Z,1010.00
2019-02-11T10:54:05.871Z,1010.07
2019-02-11T10:55:05.877Z,1010.04
2019-02-11T10:56:05.850Z,1010.06
2019-02-11T10:57:05.836Z,1010.06
2019-02-11T10:58:05.837Z,1010.07
2019-02-11T10:59:05.816Z,1010.05
2019-02-11T11:00:05.807Z,1010.07
2019-02-11T11:01:05.793Z,1010.05
2019-02-11T11:02:05.833Z,1010.07
2019-02-11T11:03:05.796Z,1010.07
2019-02-11T11:04:05.762Z,1010.23
2019-02-11T11:05:05.749Z,1010.34
2019-02-11T11:06:05.737Z,1010.50
2019-02-11T11:07:05.780Z,1010.58
2019-02-11T11:08:05.748Z,1010.76
2019-02-11T11:09:05.719Z,1010.79
2019-02-11T11:10:05.693Z,1010.83
2019-02-11T11:11:05.683Z,1010.99
2019-02-11T11:12:05.672Z,1010.91
2019-02-11T11:13:05.661Z,1010.89
2019-02-11T11:14:05.682Z,1010.87
2019-02-11T11:15:05.657Z,1010.91
2019-02-11T11:16:05.630Z,1010.89
2019-02-11T11:17:05.621Z,1010.75
2019-02-11T11:18:05.610Z,1010.77
2019-02-11T11:19:05.605Z,1010.78
2019-02-11T11:20:05.604Z,1010.85
2019-02-11T11:21:05.618Z,1010.88
2019-02-11T11:22:05.562Z,1010.92
2019-02-11T11:23:05.551Z,1010.87
2019-02-11T11:24:05.539Z,1010.91
2019-02-11T11:25:05.530Z,1010.96
2019-02-11T11:26:05.549Z,1010.96
2019-02-11T11:27:05.542Z,1011.03
2019-02-11T11:28:05.497Z,1011.03
2019-02-11T11:29:06.093Z,1011.11
2019-02-11T11:30:05.480Z,1011.11
2019-02-11T11:31:05.486Z,1011.18
2019-02-11T11:32:05.452Z,1011.13
2019-02-11T11:33:05.487Z,1011.22
2019-02-11T11:34:05.432Z,1011.16
2019-02-11T11:35:05.416Z,1011.20
2019-02-11T11:36:05.406Z,1011.32
2019-02-11T11:37:05.412Z,1011.28
2019-02-11T11:38:05.419Z,1011.33
2019-02-11T11:39:05.390Z,1011.35
2019-02-11T11:40:05.362Z,1011.34
2019-02-11T11:41:05.356Z,1011.39
2019-02-11T11:42:05.340Z,1011.41
2019-02-11T11:43:05.342Z,1011.38
2019-02-11T11:44:05.328Z,1011.43
2019-02-11T11:45:05.346Z,1011.45
2019-02-11T11:46:05.301Z,1011.46
2019-02-11T11:47:05.288Z,1011.48
2019-02-11T11:48:05.299Z,1011.48
2019-02-11T11:49:05.264Z,1011.49
2019-02-11T11:50:05.251Z,1011.55
2019-02-11T11:51:05.258Z,1011.58
2019-02-11T11:52:05.230Z,1011.63
2019-02-11T11:53:05.218Z,1011.62
2019-02-11T11:54:05.220Z,1011.70
2019-02-11T11:55:05.197Z,1011.75
2019-02-11T11:56:05.195Z,1011.80
2019-02-11T11:57:05.233Z,1011.82
2019-02-11T11:58:05.174Z,1011.81
2019-02-11T11:59:05.171Z,1011.78
2019-02-11T12:00:05.145Z,1011.83
2019-02-11T12:01:05.131Z,1011.87
2019-02-11T12:02:05.123Z,1011.85
2019-02-11T12:03:05.983Z,1011.92
2019-02-11T12:04:06.689Z,1011.94
2019-02-11T12:05:05.106Z,1011.95
2019-02-11T12:06:05.229Z,1011.99
2019-02-11T12:07:05.070Z,1011.98
2019-02-11T12:08:05.071Z,1011.91
2019-02-11T12:09:05.083Z,1012.00
2019-02-11T12:10:05.039Z,1011.99